Aviation Digital Data Service (ADDS)

Output produced by TAFs form (1115 UTC 30 April 2016)
found at http://aviationweather.gov/adds/tafs/
 
KMTJ 300535Z 3006/0106 32004KT P6SM VCSH FEW040 OVC050 
     FM301500 00000KT P6SM BKN090 
     FM302100 31006KT P6SM BKN070 
     FM010000 07004KT P6SM BKN090